Flight Track Log - Related Links

Times and Time Zones

All times are in EDT time to prevent confusion due to time zone crossing. See the DLA1905 flight status page for this flight to view local times or setup timezone preferences in your user account.

Time Position Orientation Groundspeed Altitude Reporting Facility
EDT Latitude Longitude Course Direction KTS MPH feet Rate Location/Type
Wed 01:24:00 AM 45.7081 8.2710 40° Northeast  Level Estimated
Wed 01:25:00 AM 45.7643 8.3407 41° Northeast  Level Estimated
Wed 01:26:00 AM 45.8204 8.4106 41° Northeast  Level Estimated
Wed 01:27:00 AM 45.8765 8.4806 41° Northeast  Level Estimated
Wed 01:28:00 AM 45.9325 8.5508 41° Northeast  Level Estimated
Wed 01:29:00 AM 45.9885 8.6211 41° Northeast  Level Estimated
Wed 01:30:00 AM 46.0444 8.6915 41° Northeast  Level Estimated
Wed 01:31:00 AM 46.1003 8.7621 41° Northeast  Level Estimated
Wed 01:32:00 AM 46.1562 8.8328 41° Northeast  Level Estimated
Wed 01:33:00 AM 46.2120 8.9037 41° Northeast  Level Estimated
Wed 01:34:00 AM 46.2678 8.9747 41° Northeast  Level Estimated
Wed 01:35:00 AM 46.3235 9.0459 41° Northeast  Level Estimated
Wed 01:36:00 AM 46.3792 9.1172 41° Northeast  Level Estimated
Wed 01:37:00 AM 46.4348 9.1886 41° Northeast  Level Estimated
Wed 01:38:00 AM 46.4904 9.2602 42° Northeast  Level Estimated
Wed 01:39:00 AM 46.5460 9.3320 42° Northeast  Level Estimated
Wed 01:40:00 AM 46.6015 9.4038 42° Northeast  Level Estimated
Wed 01:41:00 AM 46.6570 9.4759 42° Northeast  Level Estimated
Wed 01:42:00 AM 46.7124 9.5481 42° Northeast  Level Estimated
Wed 01:43:00 AM 46.7677 9.6204 42° Northeast  Level Estimated
Wed 01:44:00 AM 46.8231 9.6929 42° Northeast  Level Estimated
Wed 01:45:00 AM 46.8783 9.7655 42° Northeast  Level Estimated
Wed 01:46:00 AM 46.9336 9.8383 42° Northeast  Level Estimated
Wed 01:47:00 AM 46.9888 9.9112 42° Northeast  Level Estimated
Wed 01:48:00 AM 47.0439 9.9843 42° Northeast  Level Estimated
Wed 01:49:00 AM 47.0990 10.0575 42° Northeast  Level Estimated
Wed 01:50:00 AM 47.1540 10.1309 42° Northeast  Level Estimated
Wed 01:51:00 AM 47.2090 10.2045 42° Northeast  Level Estimated
Wed 01:52:00 AM 47.2640 10.2781 42° Northeast  Level Estimated
Wed 01:53:00 AM 47.3189 10.3520 42° Northeast  Level Estimated
Wed 01:54:00 AM 47.3737 10.4260 42° Northeast  Level Estimated
Wed 01:55:00 AM 47.4286 10.5001 42° Northeast  Level Estimated
Wed 01:56:00 AM 47.4833 10.5744 43° Northeast  Level Estimated
Wed 01:57:00 AM 47.5380 10.6489 43° Northeast  Level Estimated
Wed 01:58:00 AM 47.5927 10.7235 43° Northeast  Level Estimated
Wed 01:59:00 AM 47.6473 10.7983 43° Northeast  Level Estimated
Wed 02:00:00 AM 47.7019 10.8732 43° Northeast  Level Estimated
Wed 02:01:00 AM 47.7564 10.9483 43° Northeast  Level Estimated
Wed 02:02:00 AM 47.8109 11.0236 43° Northeast  Level Estimated
Wed 02:03:00 AM 47.8653 11.0990 43° Northeast  Level Estimated
Wed 02:04:00 AM 47.9197 11.1745 43° Northeast  Level Estimated
Wed 02:05:00 AM 47.9740 11.2502 43° Northeast  Level Estimated
Wed 02:06:00 AM 48.0283 11.3261 43° Northeast  Level Estimated
Wed 02:07:00 AM 48.0825 11.4022 43° Northeast  Level Estimated
Wed 02:08:00 AM 48.1367 11.4783 43° Northeast  Level Estimated
Wed 02:09:00 AM 48.1908 11.5547 43° Northeast  Level Estimated
Wed 02:10:00 AM 48.2448 11.6312 43° Northeast  Level Estimated
Wed 02:11:00 AM 48.2989 11.7079 43° Northeast  Level Estimated
Wed 02:12:00 AM 48.3528 11.7847 43° Northeast  Level Estimated
Wed 02:13:00 AM 48.3538 11.7861 43° Northeast  Level Estimated
Wed 02:14:00 AM 48.3538 11.7861 318° Northwest  Level Estimated
Wed 02:15:00 AM 48.3538 11.7861 318° Northwest  Level Estimated
Wed 02:16:00 AM 48.3538 11.7861 318° Northwest  Level Estimated
Wed 02:17:00 AM 48.3538 11.7861 318° Northwest  Level Estimated
Wed 02:18:00 AM 48.3538 11.7861 318° Northwest  Level Estimated
Wed 02:19:00 AM 48.3538 11.7861 318° Northwest  Level Estimated
Wed 02:20:00 AM 48.3538 11.7861 318° Northwest  Level Estimated
Wed 02:21:00 AM 48.3538 11.7861 318° Northwest  Level Estimated
Wed 02:22:00 AM 48.3538 11.7861 318° Northwest  Level Estimated
Wed 02:23:00 AM 48.3538 11.7861 318° Northwest  Level Estimated
Wed 02:24:00 AM 48.3538 11.7861 318° Northwest  Level Estimated
Wed 02:25:00 AM 48.3538 11.7861 318° Northwest  Level Estimated
Wed 02:26:00 AM 48.3538 11.7861 318° Northwest  Level Estimated
Wed 02:27:00 AM 48.3538 11.7861 318° Northwest  Level Estimated
Wed 02:28:00 AM 48.3538 11.7861 318° Northwest  Level Estimated

Login

Don't have an account? Register now (free) for customized features, flight alerts, and more!